createdAt,value
2019-05-26T00:00:31.769Z,3.10
2019-05-26T00:01:31.766Z,2.60
2019-05-26T00:02:31.749Z,3.00
2019-05-26T00:03:31.782Z,3.10
2019-05-26T00:04:31.730Z,2.70
2019-05-26T00:05:31.713Z,2.50
2019-05-26T00:06:31.712Z,2.70
2019-05-26T00:07:31.690Z,2.60
2019-05-26T00:08:31.690Z,2.80
2019-05-26T00:09:44.176Z,3.00
2019-05-26T00:10:31.655Z,2.70
2019-05-26T00:11:31.645Z,3.30
2019-05-26T00:12:31.640Z,3.10
2019-05-26T00:13:31.630Z,3.10
2019-05-26T00:14:31.658Z,3.30
2019-05-26T00:15:31.607Z,2.60
2019-05-26T00:16:31.591Z,2.50
2019-05-26T00:17:31.578Z,2.80
2019-05-26T00:18:33.409Z,2.60
2019-05-26T00:19:31.558Z,2.70
2019-05-26T00:20:31.590Z,2.70
2019-05-26T00:21:31.536Z,2.70
2019-05-26T00:22:31.527Z,2.90
2019-05-26T00:23:31.515Z,2.70
2019-05-26T00:24:31.509Z,2.50
2019-05-26T00:25:31.490Z,2.60
2019-05-26T00:26:31.491Z,3.10
2019-05-26T00:27:31.467Z,2.60
2019-05-26T00:28:31.458Z,2.70
2019-05-26T00:29:31.456Z,2.80
2019-05-26T00:30:31.430Z,2.60
2019-05-26T00:31:31.431Z,2.70
2019-05-26T00:32:31.469Z,2.40
2019-05-26T00:33:31.413Z,2.70
2019-05-26T00:34:31.391Z,2.80
2019-05-26T00:35:31.380Z,2.30
2019-05-26T00:36:31.411Z,2.60
2019-05-26T00:37:47.652Z,2.50
2019-05-26T00:38:32.346Z,2.40
2019-05-26T00:39:31.336Z,2.40
2019-05-26T00:40:44.533Z,2.50
2019-05-26T00:41:31.310Z,2.60
2019-05-26T00:42:31.339Z,3.00
2019-05-26T00:43:31.297Z,2.60
2019-05-26T00:44:31.278Z,2.40
2019-05-26T00:45:31.266Z,2.90
2019-05-26T00:46:31.261Z,2.60
2019-05-26T00:47:31.246Z,3.20
2019-05-26T00:48:31.239Z,2.60
2019-05-26T00:49:31.219Z,2.60
2019-05-26T00:50:31.211Z,2.70
2019-05-26T00:51:31.198Z,2.60
2019-05-26T00:52:31.194Z,2.50
2019-05-26T00:53:31.215Z,2.20
2019-05-26T00:54:31.160Z,2.70
2019-05-26T00:55:31.154Z,2.20
2019-05-26T00:56:31.199Z,2.50
2019-05-26T00:57:31.146Z,2.90
2019-05-26T00:58:31.122Z,2.50
2019-05-26T00:59:31.153Z,3.80
2019-05-26T01:00:31.100Z,2.70
2019-05-26T01:01:31.078Z,3.00
2019-05-26T01:02:31.069Z,2.50
2019-05-26T01:03:31.059Z,2.50
2019-05-26T01:04:31.042Z,2.50
2019-05-26T01:05:31.048Z,3.10
2019-05-26T01:06:31.026Z,2.50
2019-05-26T01:07:31.014Z,2.20
2019-05-26T01:08:31.682Z,3.00
2019-05-26T01:09:30.988Z,2.40
2019-05-26T01:10:30.990Z,2.60
2019-05-26T01:11:43.957Z,2.50
2019-05-26T01:12:30.957Z,2.60
2019-05-26T01:13:30.945Z,2.40
2019-05-26T01:14:30.939Z,2.40
2019-05-26T01:15:30.927Z,2.20
2019-05-26T01:16:30.907Z,2.40
2019-05-26T01:17:30.903Z,2.50
2019-05-26T01:18:30.889Z,2.40
2019-05-26T01:19:30.882Z,2.40
2019-05-26T01:20:30.875Z,4.20
2019-05-26T01:21:30.854Z,2.50
2019-05-26T01:22:30.845Z,2.50
2019-05-26T01:23:30.834Z,3.10
2019-05-26T01:24:30.824Z,2.60
2019-05-26T01:25:30.845Z,2.90
2019-05-26T01:26:30.793Z,2.30
2019-05-26T01:27:30.782Z,2.40
2019-05-26T01:28:30.776Z,2.60
2019-05-26T01:29:30.761Z,2.30
2019-05-26T01:30:30.762Z,2.30
2019-05-26T01:31:30.774Z,2.60
2019-05-26T01:32:30.731Z,2.50
2019-05-26T01:33:30.719Z,2.60
2019-05-26T01:34:30.708Z,2.40
2019-05-26T01:35:30.693Z,2.50
2019-05-26T01:36:30.686Z,2.20
2019-05-26T01:37:30.709Z,2.40
2019-05-26T01:38:30.658Z,2.60
2019-05-26T01:39:30.649Z,2.80
2019-05-26T01:40:30.639Z,2.90
2019-05-26T01:41:30.625Z,2.20
2019-05-26T01:42:43.255Z,2.40
2019-05-26T01:43:30.622Z,2.00
2019-05-26T01:44:30.680Z,2.30
2019-05-26T01:45:30.627Z,2.20
2019-05-26T01:46:30.571Z,2.20
2019-05-26T01:47:30.566Z,2.20
2019-05-26T01:48:30.616Z,2.10
2019-05-26T01:49:30.551Z,1.80
2019-05-26T01:50:30.522Z,1.90
2019-05-26T01:51:30.565Z,1.90
2019-05-26T01:52:30.520Z,1.90
2019-05-26T01:53:30.494Z,2.20
2019-05-26T01:54:30.492Z,1.80
2019-05-26T01:55:30.470Z,1.90
2019-05-26T01:56:30.460Z,1.90
2019-05-26T01:57:30.446Z,2.00
2019-05-26T01:58:30.443Z,1.80
2019-05-26T01:59:30.436Z,1.80
2019-05-26T02:00:30.415Z,1.70
2019-05-26T02:01:30.408Z,1.60
2019-05-26T02:02:30.397Z,1.70
2019-05-26T02:03:30.371Z,1.80
2019-05-26T02:04:30.379Z,1.90
2019-05-26T02:05:30.349Z,2.70
2019-05-26T02:06:30.339Z,2.20
2019-05-26T02:07:30.442Z,2.60
2019-05-26T02:08:38.866Z,1.40
2019-05-26T02:09:31.760Z,1.80
2019-05-26T02:10:30.307Z,1.70
2019-05-26T02:11:30.286Z,1.70
2019-05-26T02:12:30.283Z,2.60
2019-05-26T02:13:42.066Z,2.00
2019-05-26T02:14:30.250Z,1.90
2019-05-26T02:15:30.253Z,2.20
2019-05-26T02:16:30.250Z,1.50
2019-05-26T02:17:30.259Z,1.60
2019-05-26T02:18:30.215Z,1.80
2019-05-26T02:19:30.213Z,2.20
2019-05-26T02:20:30.195Z,1.70
2019-05-26T02:21:30.176Z,1.90
2019-05-26T02:22:30.210Z,2.00
2019-05-26T02:23:30.151Z,1.80
2019-05-26T02:24:30.139Z,2.00
2019-05-26T02:25:30.127Z,1.70
2019-05-26T02:26:30.115Z,1.50
2019-05-26T02:27:30.104Z,1.80
2019-05-26T02:28:30.098Z,1.60
2019-05-26T02:29:30.097Z,1.50
2019-05-26T02:30:30.065Z,1.60
2019-05-26T02:31:30.102Z,1.40
2019-05-26T02:32:30.247Z,1.70
2019-05-26T02:33:30.030Z,1.60
2019-05-26T02:34:30.032Z,1.80
2019-05-26T02:35:30.040Z,1.80
2019-05-26T02:36:30.020Z,1.70
2019-05-26T02:37:29.994Z,1.60
2019-05-26T02:38:30.020Z,3.90
2019-05-26T02:39:29.992Z,1.60
2019-05-26T02:40:29.953Z,1.70
2019-05-26T02:41:29.949Z,1.40
2019-05-26T02:42:29.955Z,1.50
2019-05-26T02:43:29.932Z,1.20
2019-05-26T02:44:43.451Z,1.60
2019-05-26T02:45:29.900Z,2.10
2019-05-26T02:46:29.884Z,1.90
2019-05-26T02:47:29.888Z,1.60
2019-05-26T02:48:29.916Z,1.80
2019-05-26T02:49:29.859Z,1.70
2019-05-26T02:50:29.846Z,2.00
2019-05-26T02:51:29.830Z,1.60
2019-05-26T02:52:29.842Z,2.40
2019-05-26T02:53:29.807Z,1.70
2019-05-26T02:54:29.808Z,2.10
2019-05-26T02:55:29.791Z,1.90
2019-05-26T02:56:29.774Z,1.70
2019-05-26T02:57:29.769Z,1.90
2019-05-26T02:58:29.751Z,1.60
2019-05-26T02:59:29.793Z,2.10
2019-05-26T03:00:29.785Z,1.70
2019-05-26T03:01:29.721Z,3.20
2019-05-26T03:02:29.707Z,1.80
2019-05-26T03:03:29.707Z,2.40
2019-05-26T03:04:29.683Z,1.60
2019-05-26T03:05:29.715Z,1.70
2019-05-26T03:06:29.662Z,1.60
2019-05-26T03:07:29.651Z,1.70
2019-05-26T03:08:29.638Z,1.70
2019-05-26T03:09:29.641Z,1.80
2019-05-26T03:10:29.627Z,3.00
2019-05-26T03:11:29.658Z,2.40
2019-05-26T03:12:29.603Z,1.60
2019-05-26T03:13:29.582Z,1.80
2019-05-26T03:14:29.584Z,1.70
2019-05-26T03:15:42.216Z,2.20
2019-05-26T03:16:30.345Z,1.70
2019-05-26T03:17:29.853Z,2.00
2019-05-26T03:18:29.534Z,1.70
2019-05-26T03:19:29.540Z,1.80
2019-05-26T03:20:29.514Z,2.00
2019-05-26T03:21:29.535Z,1.80
2019-05-26T03:22:29.496Z,2.00
2019-05-26T03:23:29.477Z,2.00
2019-05-26T03:24:29.460Z,2.30
2019-05-26T03:25:29.448Z,2.00
2019-05-26T03:26:29.440Z,2.00
2019-05-26T03:27:29.443Z,2.00
2019-05-26T03:28:29.415Z,2.30
2019-05-26T03:29:29.406Z,1.80
2019-05-26T03:30:29.408Z,2.60
2019-05-26T03:31:29.388Z,1.70
2019-05-26T03:32:29.407Z,2.20
2019-05-26T03:33:29.368Z,2.00
2019-05-26T03:34:29.365Z,2.60
2019-05-26T03:35:29.380Z,1.80
2019-05-26T03:36:29.339Z,2.40
2019-05-26T03:37:29.325Z,2.50
2019-05-26T03:38:29.834Z,2.60
2019-05-26T03:39:43.498Z,2.00
2019-05-26T03:40:30.290Z,2.40
2019-05-26T03:41:29.283Z,2.10
2019-05-26T03:42:29.269Z,2.10
2019-05-26T03:43:29.286Z,2.60
2019-05-26T03:44:29.246Z,3.10
2019-05-26T03:45:29.226Z,2.10
2019-05-26T03:46:41.530Z,2.90
2019-05-26T03:47:29.201Z,2.40
2019-05-26T03:48:29.192Z,3.70
2019-05-26T03:49:29.188Z,2.60
2019-05-26T03:50:29.181Z,2.10
2019-05-26T03:51:29.160Z,3.00
2019-05-26T03:52:29.146Z,2.60
2019-05-26T03:53:29.137Z,2.60
2019-05-26T03:54:29.154Z,2.40
2019-05-26T03:55:29.124Z,3.90
2019-05-26T03:56:29.101Z,2.60
2019-05-26T03:57:29.088Z,2.70
2019-05-26T03:58:29.080Z,2.40
2019-05-26T03:59:29.085Z,2.60
2019-05-26T04:00:29.067Z,2.60
2019-05-26T04:01:29.065Z,2.10
2019-05-26T04:02:29.039Z,3.00
2019-05-26T04:03:29.025Z,2.30
2019-05-26T04:04:29.024Z,2.50
2019-05-26T04:05:29.009Z,2.60
2019-05-26T04:06:29.002Z,2.30
2019-05-26T04:07:28.982Z,2.80
2019-05-26T04:08:28.975Z,2.80
2019-05-26T04:09:28.957Z,3.10
2019-05-26T04:10:28.946Z,2.30
2019-05-26T04:11:28.952Z,3.70
2019-05-26T04:12:28.924Z,2.60
2019-05-26T04:13:28.910Z,2.60
2019-05-26T04:14:28.897Z,3.10
2019-05-26T04:15:28.893Z,3.20
2019-05-26T04:16:28.882Z,3.30
2019-05-26T04:17:43.921Z,2.70
2019-05-26T04:18:28.867Z,3.10
2019-05-26T04:19:28.857Z,3.10
2019-05-26T04:20:28.832Z,3.10
2019-05-26T04:21:28.829Z,3.30
2019-05-26T04:22:28.835Z,3.20
2019-05-26T04:23:28.868Z,3.50
2019-05-26T04:24:28.796Z,3.20
2019-05-26T04:25:28.788Z,2.80
2019-05-26T04:26:28.759Z,3.50
2019-05-26T04:27:28.817Z,3.50
2019-05-26T04:28:28.759Z,3.10
2019-05-26T04:29:28.724Z,3.70
2019-05-26T04:30:28.723Z,2.80
2019-05-26T04:31:28.709Z,3.10
2019-05-26T04:32:28.698Z,3.40
2019-05-26T04:33:28.695Z,3.40
2019-05-26T04:34:28.666Z,3.20
2019-05-26T04:35:28.669Z,2.80
2019-05-26T04:36:28.644Z,4.00
2019-05-26T04:37:28.634Z,2.70
2019-05-26T04:38:28.665Z,3.00
2019-05-26T04:39:28.630Z,3.50
2019-05-26T04:40:28.607Z,2.70
2019-05-26T04:41:28.599Z,2.50
2019-05-26T04:42:28.591Z,3.00
2019-05-26T04:43:28.579Z,3.40
2019-05-26T04:44:28.571Z,2.80
2019-05-26T04:45:28.581Z,2.40
2019-05-26T04:46:28.647Z,2.70
2019-05-26T04:47:28.522Z,2.30
2019-05-26T04:48:40.966Z,2.70
2019-05-26T04:49:28.503Z,2.40
2019-05-26T04:50:28.509Z,2.60
2019-05-26T04:51:28.506Z,2.50
2019-05-26T04:52:28.474Z,2.90
2019-05-26T04:53:28.489Z,2.30
2019-05-26T04:54:28.469Z,2.50
2019-05-26T04:55:28.448Z,2.10
2019-05-26T04:56:28.427Z,1.90
2019-05-26T04:57:28.412Z,2.00
2019-05-26T04:58:28.402Z,2.00
2019-05-26T04:59:28.401Z,3.70
2019-05-26T05:00:28.394Z,2.00
2019-05-26T05:01:28.422Z,2.20
2019-05-26T05:02:28.355Z,3.10
2019-05-26T05:03:28.349Z,2.20
2019-05-26T05:04:28.329Z,1.90
2019-05-26T05:05:28.317Z,2.00
2019-05-26T05:06:28.313Z,2.10
2019-05-26T05:07:28.905Z,1.70
2019-05-26T05:08:28.287Z,1.70
2019-05-26T05:09:28.367Z,2.20
2019-05-26T05:10:41.310Z,2.10
2019-05-26T05:11:29.460Z,1.90
2019-05-26T05:12:28.240Z,2.20
2019-05-26T05:13:28.233Z,1.80
2019-05-26T05:14:28.225Z,1.80
2019-05-26T05:15:28.214Z,1.80
2019-05-26T05:16:28.199Z,1.90
2019-05-26T05:17:28.194Z,1.80
2019-05-26T05:18:28.173Z,2.40
2019-05-26T05:19:40.627Z,1.70
2019-05-26T05:20:28.152Z,1.70
2019-05-26T05:21:28.155Z,1.90
2019-05-26T05:22:28.131Z,1.60
2019-05-26T05:23:28.120Z,1.70
2019-05-26T05:24:28.115Z,1.70
2019-05-26T05:25:28.111Z,1.70
2019-05-26T05:26:28.081Z,1.90
2019-05-26T05:27:28.080Z,2.00
2019-05-26T05:28:28.069Z,1.50
2019-05-26T05:29:28.053Z,1.80
2019-05-26T05:30:28.039Z,2.40
2019-05-26T05:31:28.031Z,1.70
2019-05-26T05:32:28.026Z,1.60
2019-05-26T05:33:28.009Z,1.60
2019-05-26T05:34:28.001Z,1.60
2019-05-26T05:35:27.996Z,1.50
2019-05-26T05:36:27.981Z,1.50
2019-05-26T05:37:27.974Z,1.80
2019-05-26T05:38:27.960Z,1.40
2019-05-26T05:39:27.949Z,1.50
2019-05-26T05:40:27.950Z,1.40
2019-05-26T05:41:27.919Z,1.40
2019-05-26T05:42:27.907Z,1.60
2019-05-26T05:43:27.909Z,1.50
2019-05-26T05:44:27.894Z,1.50
2019-05-26T05:45:27.872Z,1.20
2019-05-26T05:46:27.864Z,1.50
2019-05-26T05:47:27.851Z,1.40
2019-05-26T05:48:27.842Z,1.50
2019-05-26T05:49:27.867Z,1.40
2019-05-26T05:50:41.117Z,1.40
2019-05-26T05:51:27.817Z,1.50
2019-05-26T05:52:27.806Z,1.40
2019-05-26T05:53:27.808Z,1.10
2019-05-26T05:54:27.776Z,1.30
2019-05-26T05:55:27.856Z,1.40
2019-05-26T05:56:27.774Z,1.50
2019-05-26T05:57:27.750Z,1.00
2019-05-26T05:58:27.729Z,1.40
2019-05-26T05:59:27.712Z,1.40
2019-05-26T06:00:27.745Z,1.40
2019-05-26T06:01:27.696Z,1.00
2019-05-26T06:02:27.685Z,1.70
2019-05-26T06:03:27.673Z,1.30
2019-05-26T06:04:27.656Z,2.40
2019-05-26T06:05:27.656Z,1.70
2019-05-26T06:06:27.647Z,1.20
2019-05-26T06:07:27.629Z,1.10
2019-05-26T06:08:27.606Z,1.10
2019-05-26T06:09:27.606Z,1.10
2019-05-26T06:10:27.588Z,1.00
2019-05-26T06:11:27.619Z,1.20
2019-05-26T06:12:27.573Z,1.10
2019-05-26T06:13:27.554Z,2.30
2019-05-26T06:14:27.587Z,1.30
2019-05-26T06:15:27.532Z,1.00
2019-05-26T06:16:27.517Z,1.50
2019-05-26T06:17:27.602Z,1.30
2019-05-26T06:18:27.513Z,1.50
2019-05-26T06:19:27.500Z,1.20
2019-05-26T06:20:27.489Z,1.10
2019-05-26T06:21:40.212Z,1.20
2019-05-26T06:22:27.450Z,1.30
2019-05-26T06:23:27.480Z,1.40
2019-05-26T06:24:27.434Z,1.30
2019-05-26T06:25:27.442Z,1.20
2019-05-26T06:26:27.473Z,1.40
2019-05-26T06:27:27.396Z,1.80
2019-05-26T06:28:27.386Z,1.20
2019-05-26T06:29:27.379Z,1.10
2019-05-26T06:30:27.362Z,1.30
2019-05-26T06:31:27.356Z,1.30
2019-05-26T06:32:27.343Z,1.60
2019-05-26T06:33:27.327Z,1.00
2019-05-26T06:34:27.328Z,1.00
2019-05-26T06:35:27.306Z,1.40
2019-05-26T06:36:27.300Z,1.20
2019-05-26T06:37:27.286Z,1.50
2019-05-26T06:38:27.268Z,1.40
2019-05-26T06:39:27.266Z,1.40
2019-05-26T06:40:27.255Z,0.90
2019-05-26T06:41:33.320Z,2.10
2019-05-26T06:42:28.223Z,1.10
2019-05-26T06:43:27.215Z,1.50
2019-05-26T06:44:27.202Z,1.20
2019-05-26T06:45:27.202Z,1.10
2019-05-26T06:46:27.179Z,1.00
2019-05-26T06:47:27.174Z,1.40
2019-05-26T06:48:27.309Z,1.00
2019-05-26T06:49:27.159Z,1.10
2019-05-26T06:50:27.144Z,1.10
2019-05-26T06:51:27.127Z,1.00
2019-05-26T06:52:40.082Z,1.00
2019-05-26T06:53:27.105Z,1.40
2019-05-26T06:54:27.089Z,1.60
2019-05-26T06:55:27.094Z,1.00
2019-05-26T06:56:27.070Z,1.00
2019-05-26T06:57:27.057Z,1.00
2019-05-26T06:58:27.054Z,1.10
2019-05-26T06:59:27.038Z,1.40
2019-05-26T07:00:27.041Z,1.30
2019-05-26T07:01:27.022Z,1.00
2019-05-26T07:02:27.002Z,2.80
2019-05-26T07:03:26.992Z,1.90
2019-05-26T07:04:26.982Z,0.80
2019-05-26T07:05:26.973Z,1.10
2019-05-26T07:06:27.012Z,1.00
2019-05-26T07:07:26.942Z,0.90
2019-05-26T07:08:26.980Z,2.20
2019-05-26T07:09:26.980Z,1.00
2019-05-26T07:10:26.916Z,1.10
2019-05-26T07:11:26.904Z,1.00
2019-05-26T07:12:26.903Z,1.20
2019-05-26T07:13:26.881Z,2.30
2019-05-26T07:14:26.869Z,1.00
2019-05-26T07:15:26.857Z,1.60
2019-05-26T07:16:37.569Z,0.80
2019-05-26T07:17:27.844Z,1.10
2019-05-26T07:18:26.818Z,0.90
2019-05-26T07:19:26.818Z,1.00
2019-05-26T07:20:26.798Z,0.90
2019-05-26T07:21:26.784Z,0.90
2019-05-26T07:22:26.783Z,0.70
2019-05-26T07:23:38.595Z,1.00
2019-05-26T07:24:29.290Z,0.70
2019-05-26T07:25:26.740Z,0.80
2019-05-26T07:26:26.737Z,0.90
2019-05-26T07:27:26.716Z,0.90
2019-05-26T07:28:26.717Z,1.00
2019-05-26T07:29:26.718Z,0.90
2019-05-26T07:30:26.703Z,0.70
2019-05-26T07:31:26.678Z,1.00
2019-05-26T07:32:26.668Z,2.20
2019-05-26T07:33:26.652Z,1.10
2019-05-26T07:34:26.652Z,0.90
2019-05-26T07:35:26.638Z,1.30
2019-05-26T07:36:26.623Z,1.10
2019-05-26T07:37:26.607Z,0.80
2019-05-26T07:38:26.601Z,0.80
2019-05-26T07:39:26.587Z,1.20
2019-05-26T07:40:26.600Z,0.80
2019-05-26T07:41:26.576Z,1.00
2019-05-26T07:42:26.565Z,1.10
2019-05-26T07:43:28.215Z,0.90
2019-05-26T07:44:26.532Z,0.90
2019-05-26T07:45:26.534Z,2.00
2019-05-26T07:46:26.510Z,0.90
2019-05-26T07:47:26.547Z,0.80
2019-05-26T07:48:26.485Z,0.90
2019-05-26T07:49:26.473Z,0.90
2019-05-26T07:50:27.085Z,0.90
2019-05-26T07:51:26.449Z,0.70
2019-05-26T07:52:26.446Z,0.80
2019-05-26T07:53:26.473Z,0.80
2019-05-26T07:54:38.164Z,0.90
2019-05-26T07:55:26.407Z,1.00
2019-05-26T07:56:26.394Z,0.90
2019-05-26T07:57:26.393Z,2.10
2019-05-26T07:58:26.377Z,0.90
2019-05-26T07:59:26.376Z,1.30
2019-05-26T08:00:26.354Z,1.00
2019-05-26T08:01:35.217Z,1.70
2019-05-26T08:02:27.367Z,1.60
2019-05-26T08:03:26.391Z,1.20
2019-05-26T08:04:26.312Z,1.20
2019-05-26T08:05:26.291Z,1.10
2019-05-26T08:06:26.283Z,1.10
2019-05-26T08:07:26.270Z,1.40
2019-05-26T08:08:26.316Z,1.40
2019-05-26T08:09:26.256Z,1.10
2019-05-26T08:10:26.246Z,1.60
2019-05-26T08:11:26.224Z,1.10
2019-05-26T08:12:30.413Z,1.00
2019-05-26T08:13:26.229Z,1.20
2019-05-26T08:14:26.210Z,0.90
2019-05-26T08:15:26.196Z,1.00
2019-05-26T08:16:26.175Z,1.10
2019-05-26T08:17:26.167Z,1.00
2019-05-26T08:18:26.157Z,1.30
2019-05-26T08:19:26.174Z,1.30
2019-05-26T08:20:26.128Z,1.00
2019-05-26T08:21:26.119Z,1.00
2019-05-26T08:22:26.105Z,0.90
2019-05-26T08:23:26.095Z,0.90
2019-05-26T08:24:26.090Z,1.10
2019-05-26T08:25:39.640Z,1.30
2019-05-26T08:26:26.066Z,1.00
2019-05-26T08:27:26.053Z,1.10
2019-05-26T08:28:26.033Z,1.20
2019-05-26T08:29:26.039Z,1.30
2019-05-26T08:30:26.028Z,1.20
2019-05-26T08:31:26.019Z,1.40
2019-05-26T08:32:25.993Z,2.10
2019-05-26T08:33:25.980Z,1.80
2019-05-26T08:34:25.979Z,1.80
2019-05-26T08:35:25.980Z,1.60
2019-05-26T08:36:25.950Z,1.80
2019-05-26T08:37:25.934Z,2.10
2019-05-26T08:38:25.926Z,1.90
2019-05-26T08:39:25.917Z,2.20
2019-05-26T08:40:25.901Z,2.60
2019-05-26T08:41:25.950Z,1.80
2019-05-26T08:42:28.938Z,1.80
2019-05-26T08:43:26.872Z,1.70
2019-05-26T08:44:25.858Z,1.80
2019-05-26T08:45:25.851Z,1.50
2019-05-26T08:46:25.833Z,3.10
2019-05-26T08:47:25.829Z,1.80
2019-05-26T08:48:25.815Z,1.50
2019-05-26T08:49:25.810Z,1.40
2019-05-26T08:50:25.788Z,1.90
2019-05-26T08:51:25.779Z,1.50
2019-05-26T08:52:25.790Z,1.20
2019-05-26T08:53:25.757Z,1.20
2019-05-26T08:54:25.747Z,1.30
2019-05-26T08:55:25.733Z,1.40
2019-05-26T08:56:37.694Z,1.20
2019-05-26T08:57:25.710Z,1.20
2019-05-26T08:58:29.186Z,1.00
2019-05-26T08:59:25.690Z,1.70
2019-05-26T09:00:25.684Z,1.70
2019-05-26T09:01:25.662Z,1.20
2019-05-26T09:02:25.656Z,1.20
2019-05-26T09:03:25.641Z,1.00
2019-05-26T09:04:25.646Z,0.90
2019-05-26T09:05:25.615Z,1.20
2019-05-26T09:06:25.619Z,1.10
2019-05-26T09:07:25.597Z,2.50
2019-05-26T09:08:25.626Z,1.00
2019-05-26T09:09:25.590Z,1.00
2019-05-26T09:10:25.564Z,1.10
2019-05-26T09:11:25.551Z,1.00
2019-05-26T09:12:25.540Z,1.10
2019-05-26T09:13:25.530Z,1.90
2019-05-26T09:14:25.692Z,1.10
2019-05-26T09:15:25.519Z,0.90
2019-05-26T09:16:34.110Z,2.40
2019-05-26T09:17:25.481Z,1.40
2019-05-26T09:18:25.604Z,1.80
2019-05-26T09:19:25.522Z,1.10
2019-05-26T09:20:25.467Z,0.90
2019-05-26T09:21:25.443Z,1.00
2019-05-26T09:22:25.429Z,1.20
2019-05-26T09:23:25.409Z,1.00
2019-05-26T09:24:25.407Z,0.90
2019-05-26T09:25:25.434Z,1.30
2019-05-26T09:26:25.385Z,1.20
2019-05-26T09:27:25.370Z,2.20
2019-05-26T09:28:25.362Z,0.90
2019-05-26T09:29:25.345Z,1.00
2019-05-26T09:30:25.337Z,1.10
2019-05-26T09:31:25.379Z,0.90
2019-05-26T09:32:25.318Z,1.10
2019-05-26T09:33:25.300Z,0.80
2019-05-26T09:34:25.325Z,1.10
2019-05-26T09:35:25.280Z,1.00
2019-05-26T09:36:25.267Z,1.30
2019-05-26T09:37:25.278Z,1.50
2019-05-26T09:38:25.305Z,1.50
2019-05-26T09:39:25.238Z,0.90
2019-05-26T09:40:25.225Z,0.80
2019-05-26T09:41:25.262Z,0.70
2019-05-26T09:42:25.234Z,1.40
2019-05-26T09:43:25.201Z,0.90
2019-05-26T09:44:25.185Z,0.80
2019-05-26T09:45:25.194Z,0.90
2019-05-26T09:46:25.161Z,0.80
2019-05-26T09:47:36.782Z,0.80
2019-05-26T09:48:25.136Z,0.90
2019-05-26T09:49:25.153Z,1.10
2019-05-26T09:50:25.109Z,0.80
2019-05-26T09:51:25.102Z,0.90
2019-05-26T09:52:25.094Z,1.00
2019-05-26T09:53:25.123Z,0.90
2019-05-26T09:54:25.075Z,1.30
2019-05-26T09:55:25.056Z,0.90
2019-05-26T09:56:25.052Z,2.10
2019-05-26T09:57:25.039Z,0.80
2019-05-26T09:58:25.028Z,2.40
2019-05-26T09:59:25.024Z,1.50
2019-05-26T10:00:25.005Z,1.40
2019-05-26T10:01:24.993Z,0.70
2019-05-26T10:02:24.991Z,1.10
2019-05-26T10:03:24.973Z,1.10
2019-05-26T10:04:24.966Z,1.20
2019-05-26T10:05:24.947Z,0.70
2019-05-26T10:06:24.953Z,1.40
2019-05-26T10:07:24.924Z,1.00
2019-05-26T10:08:24.917Z,0.90
2019-05-26T10:09:24.915Z,0.90
2019-05-26T10:10:24.910Z,2.60
2019-05-26T10:11:24.881Z,1.60
2019-05-26T10:12:24.871Z,1.20
2019-05-26T10:13:31.690Z,1.60
2019-05-26T10:14:25.850Z,1.20
2019-05-26T10:15:24.878Z,0.80
2019-05-26T10:16:24.834Z,0.90
2019-05-26T10:17:24.809Z,1.20
2019-05-26T10:18:37.427Z,0.90
2019-05-26T10:19:24.786Z,1.00
2019-05-26T10:20:24.779Z,1.10
2019-05-26T10:21:24.777Z,2.10
2019-05-26T10:22:24.782Z,0.90
2019-05-26T10:23:24.745Z,0.80
2019-05-26T10:24:24.754Z,0.70
2019-05-26T10:25:24.725Z,0.80
2019-05-26T10:26:24.719Z,0.80
2019-05-26T10:27:24.703Z,1.00
2019-05-26T10:28:24.693Z,1.40
2019-05-26T10:29:24.698Z,1.10
2019-05-26T10:30:24.669Z,1.10
2019-05-26T10:31:24.668Z,1.20
2019-05-26T10:32:24.690Z,1.60
2019-05-26T10:33:24.658Z,1.20
2019-05-26T10:34:24.625Z,1.70
2019-05-26T10:35:24.622Z,1.20
2019-05-26T10:36:24.636Z,1.20
2019-05-26T10:37:24.590Z,2.80
2019-05-26T10:38:24.585Z,1.00
2019-05-26T10:39:32.520Z,0.90
2019-05-26T10:40:24.549Z,1.10
2019-05-26T10:41:24.540Z,1.00
2019-05-26T10:42:24.534Z,0.80
2019-05-26T10:43:24.515Z,0.80
2019-05-26T10:44:24.510Z,0.80
2019-05-26T10:45:24.496Z,0.70
2019-05-26T10:46:24.482Z,1.20
2019-05-26T10:47:24.514Z,1.00
2019-05-26T10:48:24.597Z,1.00
2019-05-26T10:49:24.449Z,1.40
2019-05-26T10:50:24.441Z,1.60
2019-05-26T10:51:24.428Z,0.80
2019-05-26T10:52:24.420Z,1.10
2019-05-26T10:53:24.408Z,1.20
2019-05-26T10:54:24.403Z,1.00
2019-05-26T10:55:24.388Z,1.20
2019-05-26T10:56:24.373Z,1.40
2019-05-26T10:57:24.431Z,2.10
2019-05-26T10:58:24.368Z,1.90
2019-05-26T10:59:24.331Z,2.00
2019-05-26T11:00:24.332Z,1.10
2019-05-26T11:01:24.317Z,1.30
2019-05-26T11:02:24.302Z,1.30
2019-05-26T11:03:24.324Z,1.10
2019-05-26T11:04:24.287Z,1.10
2019-05-26T11:05:24.267Z,1.60
2019-05-26T11:06:24.272Z,1.30
2019-05-26T11:07:26.866Z,0.80
2019-05-26T11:08:24.247Z,2.50
2019-05-26T11:09:24.232Z,2.30
2019-05-26T11:10:36.955Z,1.20
2019-05-26T11:11:24.201Z,1.10
2019-05-26T11:12:24.189Z,0.80
2019-05-26T11:13:24.187Z,1.00
2019-05-26T11:14:24.189Z,0.60
2019-05-26T11:15:24.154Z,0.70
2019-05-26T11:16:24.169Z,1.50
2019-05-26T11:17:24.132Z,0.80
2019-05-26T11:18:24.122Z,0.70
2019-05-26T11:19:24.108Z,0.60
2019-05-26T11:20:24.130Z,0.50
2019-05-26T11:21:24.084Z,1.20
2019-05-26T11:22:24.076Z,1.50
2019-05-26T11:23:24.067Z,0.80
2019-05-26T11:24:24.056Z,0.80
2019-05-26T11:25:24.079Z,0.70
2019-05-26T11:26:24.027Z,0.80
2019-05-26T11:27:24.020Z,1.30
2019-05-26T11:28:24.008Z,2.40
2019-05-26T11:29:24.005Z,3.70
2019-05-26T11:30:23.991Z,1.00
2019-05-26T11:31:23.990Z,0.70
2019-05-26T11:32:23.981Z,0.90
2019-05-26T11:33:23.950Z,0.80
2019-05-26T11:34:23.943Z,0.90
2019-05-26T11:35:23.939Z,1.20
2019-05-26T11:36:23.934Z,5.80
2019-05-26T11:37:23.920Z,1.00
2019-05-26T11:38:23.904Z,1.00
2019-05-26T11:39:23.889Z,1.20
2019-05-26T11:40:23.880Z,2.60
2019-05-26T11:41:36.899Z,4.10
2019-05-26T11:42:23.853Z,3.90
2019-05-26T11:43:23.843Z,0.90
2019-05-26T11:44:23.829Z,1.40
2019-05-26T11:45:23.831Z,1.80
2019-05-26T11:46:23.824Z,2.70
2019-05-26T11:47:23.835Z,1.20
2019-05-26T11:48:23.790Z,1.50
2019-05-26T11:49:23.792Z,1.70
2019-05-26T11:50:23.770Z,1.20
2019-05-26T11:51:23.761Z,1.40
2019-05-26T11:52:23.740Z,1.80
2019-05-26T11:53:23.742Z,1.10
2019-05-26T11:54:23.725Z,2.20
2019-05-26T11:55:23.708Z,1.30
2019-05-26T11:56:23.700Z,1.40
2019-05-26T11:57:23.698Z,1.20
2019-05-26T11:58:23.682Z,1.40
2019-05-26T11:59:23.661Z,1.00
2019-05-26T12:00:23.650Z,1.10
2019-05-26T12:01:23.650Z,1.30
2019-05-26T12:02:23.626Z,1.30
2019-05-26T12:03:23.653Z,1.10
2019-05-26T12:04:23.614Z,1.20
2019-05-26T12:05:23.595Z,2.10
2019-05-26T12:06:23.586Z,1.30
2019-05-26T12:07:23.576Z,1.20
2019-05-26T12:08:23.561Z,2.80
2019-05-26T12:09:23.556Z,1.40
2019-05-26T12:10:23.536Z,3.00
2019-05-26T12:11:23.530Z,1.50
2019-05-26T12:12:36.112Z,1.40
2019-05-26T12:13:23.507Z,1.10
2019-05-26T12:14:34.367Z,1.20
2019-05-26T12:15:24.521Z,1.40
2019-05-26T12:16:23.476Z,1.40
2019-05-26T12:17:23.567Z,1.20
2019-05-26T12:18:23.454Z,1.50
2019-05-26T12:19:23.441Z,1.10
2019-05-26T12:20:23.463Z,1.40
2019-05-26T12:21:23.423Z,1.70
2019-05-26T12:22:23.408Z,1.70
2019-05-26T12:23:23.392Z,1.90
2019-05-26T12:24:23.389Z,1.30
2019-05-26T12:25:23.383Z,2.40
2019-05-26T12:26:23.371Z,1.50
2019-05-26T12:27:23.352Z,1.40
2019-05-26T12:28:23.333Z,1.30
2019-05-26T12:29:23.322Z,1.30
2019-05-26T12:30:23.324Z,1.40
2019-05-26T12:31:23.347Z,1.60
2019-05-26T12:32:23.301Z,1.70
2019-05-26T12:33:23.277Z,1.60
2019-05-26T12:34:23.273Z,2.00
2019-05-26T12:35:23.253Z,1.50
2019-05-26T12:36:23.242Z,1.80
2019-05-26T12:37:23.241Z,1.60
2019-05-26T12:38:23.226Z,1.70
2019-05-26T12:39:23.207Z,1.60
2019-05-26T12:40:23.222Z,1.60
2019-05-26T12:41:23.199Z,1.60
2019-05-26T12:42:23.226Z,2.80
2019-05-26T12:43:36.015Z,1.70
2019-05-26T12:44:23.150Z,1.90
2019-05-26T12:45:23.143Z,1.80
2019-05-26T12:46:23.137Z,1.50
2019-05-26T12:47:23.121Z,2.80
2019-05-26T12:48:23.115Z,1.40
2019-05-26T12:49:23.098Z,2.00
2019-05-26T12:50:23.088Z,2.10
2019-05-26T12:51:23.089Z,1.50
2019-05-26T12:52:23.081Z,1.90
2019-05-26T12:53:23.095Z,2.60
2019-05-26T12:54:23.048Z,1.60
2019-05-26T12:55:23.029Z,1.60
2019-05-26T12:56:23.021Z,3.10
2019-05-26T12:57:23.014Z,1.30
2019-05-26T12:58:22.999Z,1.60
2019-05-26T12:59:23.007Z,1.90
2019-05-26T13:00:22.976Z,1.20
2019-05-26T13:01:22.966Z,1.40
2019-05-26T13:02:22.955Z,1.50
2019-05-26T13:03:22.943Z,1.50
2019-05-26T13:04:22.976Z,1.80
2019-05-26T13:05:22.920Z,1.70
2019-05-26T13:06:22.917Z,1.70
2019-05-26T13:07:22.903Z,1.70
2019-05-26T13:08:22.884Z,1.70
2019-05-26T13:09:22.879Z,2.10
2019-05-26T13:10:22.908Z,1.70
2019-05-26T13:11:23.038Z,2.50
2019-05-26T13:12:22.844Z,4.30
2019-05-26T13:13:22.829Z,10.80
2019-05-26T13:14:35.507Z,12.60
2019-05-26T13:15:22.810Z,35.20
2019-05-26T13:16:22.829Z,47.00
2019-05-26T13:17:22.793Z,39.60
2019-05-26T13:18:22.780Z,37.00